KFMY/FMY METAR and TAF weather

Enter ICAO airport designator
Station Type Date Time Source
KFMY METAR 2022/11/30 10:53 UTC NOAA

KFMY 301053Z AUTO 00000KT 10SM CLR 20/18 A3005 RMK AO2 SLP178 T02000183


Station Type Date Time Source
KFMY Decoded METAR 2022/11/30 10:53 UTC NOAA

FORT MYERS PAGE FIELD, FL, United States (KFMY) 26-35N 081-52W 4M
Nov 30, 2022 - 05:53 AM EST / 2022.11.30 1053 UTC
Wind: Calm:0
Visibility: 10 mile(s):0
Sky conditions: clear
Temperature: 68.0 F (20.0 C)
Dew Point: 64.9 F (18.3 C)
Relative Humidity: 89%
Pressure (altimeter): 30.05 in. Hg (1017 hPa)
ob: KFMY 301053Z AUTO 00000KT 10SM CLR 20/18 A3005 RMK AO2 SLP178 T02000183
cycle: 11

Station Type Date Time Source
KFMY TAF 2022/11/30 06:24 UTC NOAA

TAF KFMY 300523Z 3006/0106 10005KT P6SM SCT250
FM301500 16007KT P6SM SCT030 BKN250
FM301800 24007KT P6SM SCT030 BKN250
FM302100 28007KT P6SM SCT030 BKN250
FM010100 34005KT P6SM SCT030 BKN250

Example: see airport list